Bodensee (Kressbronn): 6,7°C  -  Teich der Wetterzentrale Bad Schussenried: 5,6°C |  Schneehöhe Kreuzthal-Steinberg (930 m ü. NN): 8 cm   
01.04.2020Höhe
ü. NN
ZeitTemperatur (°C)Nieder-
schlag
Luft-
feuchte
Luft-
druck
Wind
StationaktuellMinimumMaximumaktuellMaximum
Aldingen654 m06:36-5,1-5,1 (07:35)-0,3 (16:02)0,0 l/m²80%1023,53,7 km/h (1 Bft) W29,6 km/h (5 Bft) W (14:48)
Allmendingen541 m06:35-6,2-6,3 (07:35)-2,1 (15:10)0,0 l/m²88%1023,11,6 km/h (1 Bft) NO35,4 km/h (5 Bft) O (15:35)
Altshausen574 m06:35-4,1-4,1 (06:33)-1,1 (00:16)0,0 l/m²68%1020,68,0 km/h (2 Bft) N11,3 km/h (2 Bft) N (06:10)
Amstetten-Reutti663 m06:35-4,7-4,7 (06:35)-1,5 (16:55)0,0 l/m²86%1022,84,8 km/h (1 Bft) W48,3 km/h (6 Bft) W (15:55)
Amtzell-Grenis677 m06:35-3,3-4,1 (06:05)-1,4 (00:00)0,0 l/m²63%1022,66,4 km/h (2 Bft) NO6,4 km/h (2 Bft) W-SW (00:00)
Aulendorf570 m06:35-3,0-3,0 (06:19)-0,5 (00:00)0,0 l/m²72%1021,76,4 km/h (2 Bft) NO14,5 km/h (3 Bft) O-NO (05:13)
Bad Krozingen233 m06:35-2,2-2,2 (06:35)3,7 (16:05)0,0 l/m²78%1023,45,2 km/h (1 Bft) SW38,1 km/h (5 Bft) N (17:05)
Bad Saulgau595 m06:35-5,2-5,2 (07:00)-1,9 (15:00)0,0 l/m²87%1021,40,0 km/h (0 Bft) S-SO25,7 km/h (4 Bft) S (11:35)
Bad Saulgau, Mannsgrab588 m06:33-4,8-6,1 (05:34)-1,7 (00:17)0,0 l/m²86%1024,00,0 km/h (0 Bft) N0,0 km/h (0 Bft) N (00:00)
Bad Saulgau-Lampertsweiler627 m06:35-4,6-4,8 (06:15)0,2 (00:00)0,0 l/m²82%1024,68,0 km/h (2 Bft) N-NW22,5 km/h (4 Bft) N-NW (01:15)
Bad Schussenried572 m06:35-4,1-4,1 (06:25)-1,1 (00:00)0,0 l/m²87%1021,10,0 km/h (0 Bft) NO9,7 km/h (2 Bft) NO (03:15)
Bergatreute615 m01:45-0,7-0,7 (00:45)0,0 (00:00)0,0 l/m²77%1023,512,9 km/h (3 Bft) NO16,1 km/h (3 Bft) O-NO (01:40)
Biberach (Riss), Boehringer533 m06:40-4,0-4,4 (06:30)-1,1 (00:30)0,0 l/m²90%1021,84,0 km/h (1 Bft) N11,9 km/h (3 Bft) N (03:00)
Biberach (Riss), Realschule553 m06:35-4,0-4,1 (06:35)-0,3 (00:00)0,0 l/m²87%1023,68,0 km/h (2 Bft) N-NW12,9 km/h (3 Bft) N (06:05)
Burgrieden523 m06:35-4,1-4,1 (06:30)-0,4 (00:00)0,0 l/m²82%1022,80,0 km/h (0 Bft) NO4,8 km/h (1 Bft) O-NO (02:50)
Burgrieden-Hochstetten510 m06:30-4,6-4,6 (07:00)-0,9 (15:40)0,0 l/m²89%1023,23,2 km/h (1 Bft) N-NO25,7 km/h (4 Bft) NO (12:55)
Ebersbach579 m06:35-3,8-3,8 (05:55)-0,1 (00:00)0,0 l/m²86%1023,09,7 km/h (2 Bft) N-NO16,1 km/h (3 Bft) NO (01:25)
Ebersbach-Boos605 m06:35-4,2-4,2 (05:55)-0,1 (00:00)0,0 l/m²88%1022,817,7 km/h (3 Bft) NO22,5 km/h (4 Bft) O (01:00)
Ebersbach-Menzenweiler661 m06:35-3,8-3,9 (06:20)-0,6 (00:00)0,0 l/m²88%1022,719,3 km/h (3 Bft) N-NO24,1 km/h (4 Bft) O-NO (01:05)
Ehingen535 m01:10-2,5-2,5 (01:10)-1,3 (00:05)0,0 l/m²70%1025,40,0 km/h (0 Bft) N-NO5,0 km/h (1 Bft) N-NO (00:15)
Erlenmoos645 m06:35-3,5-3,6 (06:35)-0,9 (00:00)0,0 l/m²86%1022,74,8 km/h (1 Bft) NO12,9 km/h (3 Bft) O-NO (01:35)
Ertingen569 m06:35-3,5-3,5 (06:30)-0,6 (00:00)0,0 l/m²84%1022,84,8 km/h (1 Bft) N16,1 km/h (3 Bft) N-NO (04:10)
Friedrichshafen405 m06:35-1,7-1,7 (07:00)0,9 (13:30)0,0 l/m²78%1022,58,0 km/h (2 Bft) NO27,4 km/h (4 Bft) NO (15:10)
Günzburg443 m06:35-4,7-4,8 (06:05)-1,1 (00:00)0,0 l/m²87%1020,80,0 km/h (0 Bft) NO0,0 km/h (0 Bft) NO (00:00)
Hochdorf-Appendorf537 m06:35-4,9-5,8 (06:05)-1,7 (00:15)0,0 l/m²65%1022,58,0 km/h (2 Bft) N-NO14,5 km/h (3 Bft) N-NW (03:20)
Höchsten802 m06:35-4,2-4,2 (06:35)-1,4 (00:00)0,0 l/m²82%1020,319,3 km/h (3 Bft) O-NO25,7 km/h (4 Bft) NO (02:45)
Horgenzell618 m06:35-1,9-1,9 (03:45)-0,6 (00:05)0,0 l/m²76%1020,04,8 km/h (1 Bft) N-NO19,3 km/h (3 Bft) N-NO (00:50)
Hoßkirch632 m06:35-6,4-6,6 (06:20)-1,0 (00:15)0,0 l/m²88%1021,64,8 km/h (1 Bft) O-SO14,5 km/h (3 Bft) O-NO (00:20)
Isny, Am Dreifingerbach695 m06:35-5,9-6,2 (06:25)0,1 (01:00)0,0 l/m²86%1021,20,0 km/h (0 Bft) W14,5 km/h (3 Bft) O-NO (01:05)
Isny, Weidachweg706 m06:35-4,2-4,3 (06:20)0,3 (00:25)0,0 l/m²76%1023,63,2 km/h (1 Bft) W12,9 km/h (3 Bft) W (00:10)
Kappel-Grafenhausen163 m06:30-1,7-1,7 (07:00)3,3 (14:55)0,0 l/m²78%1021,11,6 km/h (1 Bft) N30,6 km/h (5 Bft) N-NO (16:55)
Kißlegg-Staibshof709 m06:35-3,4-3,4 (06:30)-0,9 (00:00)0,0 l/m²82%1022,38,0 km/h (2 Bft) N-NO14,5 km/h (3 Bft) O (01:50)
Kressbronn398 m06:36-2,3-2,3 (06:32)1,4 (00:00)0,0 l/m²76%1021,10,0 km/h (0 Bft) NO22,5 km/h (4 Bft) NO (00:54)
Kreuzthal-Steinberg-Alpe930 m06:30-4,5-4,8 (04:00)-2,5 (00:00)0,0 l/m²88%1022,02,2 km/h (1 Bft) W22,0 km/h (4 Bft) W-NW (00:10)
Kreuzthal-Steinberggipfel1040 m06:30-3,6-4,0 (02:20)-3,1 (00:10)-74%1022,012,6 km/h (3 Bft) O37,1 km/h (5 Bft) O-SO (00:10)
Kristberg im Montafon (AT)1425 m06:35-6,3-6,6 (04:51)-5,3 (00:40)0,0 l/m²58%1026,10,0 km/h (0 Bft) N-NO10,1 km/h (2 Bft) NO (01:47)
Laupheim500 m06:35-3,9-4,0 (06:35)0,0 (00:00)0,0 l/m²83%1022,24,8 km/h (1 Bft) NO9,7 km/h (2 Bft) O-SO (00:20)
Leutkirch-Heggelbach670 m06:35-4,7-4,7 (06:20)-2,6 (00:30)0,0 l/m²87%1021,43,2 km/h (1 Bft) N-NO8,0 km/h (2 Bft) N-NO (03:30)
Lindau-Insel420 m06:35-1,3-1,3 (07:25)1,8 (14:55)0,0 l/m²73%1021,60,0 km/h (0 Bft) O-NO29,0 km/h (5 Bft) NO (17:05)
Lindau-Stadt412 m06:35-2,3-2,3 (07:25)1,2 (14:55)0,0 l/m²76%1021,70,0 km/h (0 Bft) NO33,8 km/h (5 Bft) N-NO (15:40)
Maierhöfen im Allgäu733 m06:35-4,2-4,2 (06:35)-1,2 (01:35)0,0 l/m²76%1021,83,2 km/h (1 Bft) NW25,7 km/h (4 Bft) O-SO (02:05)
Maselheim543 m06:35-4,9-5,0 (07:25)-2,3 (13:20)0,0 l/m²87%1023,33,2 km/h (1 Bft) N-NW24,1 km/h (4 Bft) O-NO (15:20)
Maselheim-Sulmingen548 m06:35-5,1-5,1 (07:05)-2,2 (15:15)0,0 l/m²90%1024,33,2 km/h (1 Bft) NW20,9 km/h (4 Bft) N-NO (12:15)
Mietingen-Baltringen528 m06:35-5,0-5,0 (06:35)-1,3 (00:45)0,0 l/m²86%1024,70,0 km/h (0 Bft) O-NO4,8 km/h (1 Bft) N-NO (01:20)
Mindelheim-Apfeltrach620 m06:36-5,8-5,8 (06:29)-2,7 (00:00)0,0 l/m²88%1024,00,0 km/h (0 Bft) NO0,0 km/h (0 Bft) O-NO (00:00)
Mittelbiberach577 m06:36-4,5-4,5 (06:34)-1,0 (00:16)0,0 l/m²84%1023,81,6 km/h (1 Bft) NO12,8 km/h (3 Bft) NO (05:56)
Neresheim552 m06:01-6,8-6,8 (06:01)-2,0 (00:00)0,0 l/m²89%1021,70,0 km/h (0 Bft) O4,0 km/h (1 Bft) NO (01:00)
Neukirch570 m06:35-3,2-3,2 (07:05)-0,9 (14:35)0,0 l/m²81%1021,98,0 km/h (2 Bft) N37,0 km/h (5 Bft) N-NO (11:55)
Ochsenhausen, Birkenstraße613 m06:35-5,4-5,4 (07:10)-2,2 (12:50)0,0 l/m²82%1023,11,6 km/h (1 Bft) NO3,2 km/h (1 Bft) S-SW (07:05)
Ochsenhausen, Unt. Wiesen575 m06:35-5,5-5,7 (06:15)-2,4 (00:00)0,0 l/m²89%1024,40,0 km/h (0 Bft) NO4,8 km/h (1 Bft) NO (00:00)
Opfenbach-Göritz561 m06:36-4,4-5,2 (05:22)-2,8 (00:00)0,0 l/m²75%1019,90,0 km/h (0 Bft) N-NO6,5 km/h (2 Bft) O-NO (00:18)
Ostrach619 m06:35-3,7-3,8 (04:15)-0,6 (00:00)0,0 l/m²89%1021,09,7 km/h (2 Bft) N-NW12,9 km/h (3 Bft) N-NW (06:30)
Ravensburg, Goethestraße428 m06:35-1,9-1,9 (06:30)1,3 (00:00)0,0 l/m²80%1021,814,5 km/h (3 Bft) NO16,1 km/h (3 Bft) O-NO (06:15)
Ravensburg-Wernsreute511 m06:35-3,2-3,2 (06:25)0,0 (15:50)0,0 l/m²82%1024,617,7 km/h (3 Bft) N35,4 km/h (5 Bft) N-NO (11:45)
Reichenbach an der Fils343 m06:35-2,2-2,2 (06:30)1,0 (00:00)0,0 l/m²77%1025,41,6 km/h (1 Bft) SO12,9 km/h (3 Bft) O-SO (05:10)
Riedlingen530 m06:35-3,4-3,4 (06:30)-1,0 (00:00)0,0 l/m²82%1023,00,0 km/h (0 Bft) O-NO0,0 km/h (0 Bft) N (00:00)
Rißtissen489 m06:35-3,3-3,3 (06:30)-0,2 (00:00)0,0 l/m²85%1020,60,0 km/h (0 Bft) O-NO8,0 km/h (2 Bft) O-NO (03:30)
Rottweil-Hausen681 m06:33-4,2-4,4 (05:57)-1,9 (00:00)0,0 l/m²83%1023,84,7 km/h (1 Bft) N-NW6,5 km/h (2 Bft) N (02:14)
Schemmerhofen520 m06:352,72,7 (00:00)2,7 (00:00)0,0 l/m²55%1021,80,0 km/h (0 Bft) NO0,0 km/h (0 Bft) NO (00:00)
Silbertal im Montafon (AT)884 m06:36-4,4-4,4 (06:14)-1,6 (00:01)0,0 l/m²85%1026,10,0 km/h (0 Bft) O-NO0,0 km/h (0 Bft) O-NO (00:00)
Tettnang466 m06:34-1,6-1,6 (06:26)1,0 (00:00)0,0 l/m²72%1021,78,0 km/h (2 Bft) N-NO16,2 km/h (3 Bft) O-SO (01:07)
Tuttlingen648 m06:31-4,5-4,5 (06:31)-2,1 (00:01)0,0 l/m²76%1023,60,0 km/h (0 Bft) S5,2 km/h (1 Bft) W-SW (03:26)
Tuttlingen, Möhringer-Vorstadt711 m06:35-4,3-4,5 (07:10)-2,4 (16:05)0,0 l/m²82%1022,56,4 km/h (2 Bft) NO25,7 km/h (4 Bft) N-NW (12:35)
Ummendorf547 m06:35-4,6-4,8 (06:30)-0,7 (00:10)0,0 l/m²70%1023,80,0 km/h (0 Bft) O-NO16,1 km/h (3 Bft) O (01:05)
Ummendorf-Fischbach558 m06:35-5,1-5,4 (06:15)-1,9 (01:25)0,0 l/m²70%1023,60,0 km/h (0 Bft) O4,8 km/h (1 Bft) O (04:20)
Waldburg707 m06:35-3,3-3,3 (06:30)-0,8 (00:00)0,0 l/m²80%1021,46,4 km/h (2 Bft) N19,3 km/h (3 Bft) N (02:35)
Waltenhofen im Allgäu720 m06:35-7,1-7,3 (06:15)-2,2 (01:05)0,0 l/m²90%1022,30,0 km/h (0 Bft) W17,7 km/h (3 Bft) W (11:50)
Wangen, Südring548 m06:35-4,1-4,1 (06:25)-0,3 (00:00)0,0 l/m²84%1021,44,7 km/h (1 Bft) NO13,0 km/h (3 Bft) NO (01:25)
Warthausen-Birkenhard581 m06:34-4,4-4,4 (06:32)-1,2 (00:00)0,0 l/m²86%1023,410,1 km/h (2 Bft) N13,7 km/h (3 Bft) NO (06:13)
Winterlingen785 m06:30-5,6-5,6 (06:30)-2,8 (01:00)0,0 l/m²84%1022,42,9 km/h (1 Bft) O-NO3,6 km/h (1 Bft) NO (00:55)

Werbung
niederschlagsdatenbank | info | login - erfassung

Sollten Sie Interesse haben, an der Niederschlagsdatenbank teilzunehmen, finden Sie > hier < weitere Informationen.

Niederschlagsdaten der Station Ingoldingen-Grodt - Ingoldinger Weg 19

Karl Weber

Niederschlagsstation aufgenommen ins Stationsnetz der Wetterwarte Süd am 18.05.2010
Monat: .
Anmerkung:0,0 = nicht messbarer Niederschlag
 -  = kein Niederschlag

Stationsdaten

Höhe

600 m

Lage

Auf Google Maps ansehen

Beschreibung

Der Regenmesser steht ca. 10 Meter vom Wohnhaus entfernt im Gemüsegarten. Als weiteres ist ein Windmesser, mit dem die Windgeschwindigkeit und die Windrichtung ermittelt wird, auf dem Gewächshaus montiert. Die Wetterstation liegt auf 48°2'23'' nördlicher Breite und 9°43'52'' östlicher Länge in einer Höhe von exakt 600 Meter ü. NN. Grodt ist ein Teilort von der Gesamtgemeinde Ingoldingen. Wir wohnen am süd-östlichen Ortsrand von Grodt. Von hieraus hat man einen herrlichen Blick auf die schönste Dorfkirche der Welt, Steinhausen bei Bad Schussenried.
< Oktober 2016Dezember 2016 >

November 2016

TagNiederschlagBemerkung
01.-
02.-
03.-
04.1,0
Regen
05.19,0
Regen
06.7,5
1. Schnee
Regen Schneeregen Schnee
07.-
Schneehöhe: 7 cm
08.-
09.-
10.-
11.14,5 k
Regen
12.-
13.-
14.-
15.6,0
Regen
16.10,0
Regen
17.-
18.11,5 k
Regen
19.5,0
Regen
20.-
21.-
22.-
23.-
24.-
25.-
26.-
27.-
28.-
29.-
30.-
Gesamt:74,5 
Die Spalten "Tag" und "Niederschlag" lassen sich durch Klicken auf den Spaltenkopf sortieren.
Die Angaben sind in l/m².

< Oktober 2016Dezember 2016 >


Monats- und Jahresniederschlag


Wetterbeobachtungen Legende:

  • Regen
  • Nieselregen
  • Schneeregen
  • Schnee
  • Graupel
  • Eiskörner
  • Hagel
  • Bodennebel
  • Gewitter
  • Nebelnässe
  • Schneegriesel

Grafische Darstellung der Niederschläge der Station Ingoldingen-Grodt November 2016

 
wetterstationen
wetterstationen
- derzeit 83 Stationen
niederschlagsdatenbank
wetterstationen
- kartographische Darstellung
niederschlagsdatenbank
niederschlagsstationen
- derzeit 112 Stationen
niederschlagsdatenbank
niederschlagsstationen
- kartographische Darstellung
 
  treffpunkt & service
--- Anzeigen --------------------------------
zugriffe:
insgesamt: 46.623.379
aktueller monat: 568
heute: 568
momentan online: 44
 
 
monatshöchstwert: 653.625
vorheriger monat: 364.213
gestern: 13.565
tageshöchstwert: 57.073
 
wetterwarte süd
 
konradstraße 3
info@wetterwarte-sued.com
roland roth
 
88427 bad schussenried